Time;durP1;ratioP1;P1;durP2;ratioP2;P2;SDS_P1;SDS_P2;PMS_P1;PMS_P2;Temp;Humidity;BMP_temperature;BMP_pressure;BME280_temperature;BME280_humidity;BME280_pressure;Samples;Min_cycle;Max_cycle;Signal;HPM_P1;HPM_P2
2023/01/23 00:00:33;;;;;;;3.97;2.55;;;;;;;3.81;100.00;100834.25;6348570;28;20051;-79
2023/01/23 00:03:34;;;;;;;2.92;2.05;;;;;;;3.80;100.00;100826.53;6347221;28;20043;-74
2023/01/23 00:06:35;;;;;;;5.72;2.40;;;;;;;3.77;100.00;100835.19;6347252;28;20372;-74
2023/01/23 00:09:36;;;;;;;2.03;1.63;;;;;;;3.68;100.00;100839.69;6348231;28;20130;-75
2023/01/23 00:12:41;;;;;;;6.38;1.98;;;;;;;3.74;100.00;100832.66;6381392;27;20035;-79
2023/01/23 00:15:42;;;;;;;2.20;1.65;;;;;;;3.82;100.00;100830.78;6347341;28;20130;-75
2023/01/23 00:18:44;;;;;;;4.00;2.33;;;;;;;3.73;100.00;100824.97;6348102;28;20063;-75
2023/01/23 00:21:45;;;;;;;4.60;2.43;;;;;;;3.63;100.00;100824.31;6347924;28;20071;-75
2023/01/23 00:24:46;;;;;;;3.00;2.20;;;;;;;3.70;100.00;100835.34;6346629;28;20042;-75
2023/01/23 00:27:47;;;;;;;3.05;1.73;;;;;;;3.68;100.00;100832.78;6347915;28;20403;-79
2023/01/23 00:30:53;;;;;;;3.47;2.23;;;;;;;3.75;100.00;100843.88;6347834;28;20043;-79
2023/01/23 00:33:56;;;;;;;3.83;1.77;;;;;;;3.80;100.00;100836.88;6347714;28;20495;-79
2023/01/23 00:36:59;;;;;;;3.15;2.00;;;;;;;3.68;100.00;100825.06;6347751;28;20092;-79
2023/01/23 00:40:02;;;;;;;3.53;2.05;;;;;;;3.73;100.00;100833.56;6346157;28;20105;-79
2023/01/23 00:43:03;;;;;;;2.97;2.40;;;;;;;3.83;100.00;100836.81;6346231;28;20064;-75
2023/01/23 00:46:04;;;;;;;2.20;1.80;;;;;;;3.86;100.00;100839.31;6346590;28;20045;-79
2023/01/23 00:49:08;;;;;;;3.30;2.22;;;;;;;3.87;100.00;100835.00;6347289;28;20406;-79
2023/01/23 00:52:08;;;;;;;5.30;2.83;;;;;;;3.82;100.00;100835.94;6347416;28;20036;-79
2023/01/23 00:55:12;;;;;;;3.70;1.77;;;;;;;3.78;100.00;100823.97;6345934;28;20093;-79
2023/01/23 00:58:13;;;;;;;7.03;2.88;;;;;;;3.82;100.00;100827.34;6347303;28;20490;-74
2023/01/23 01:01:15;;;;;;;3.33;2.15;;;;;;;3.89;100.00;100836.69;6347159;28;20055;-75
2023/01/23 01:04:16;;;;;;;5.70;2.83;;;;;;;3.87;100.00;100837.56;6347075;28;20043;-74
2023/01/23 01:07:16;;;;;;;5.20;2.95;;;;;;;3.99;100.00;100840.75;6345850;28;20047;-79
2023/01/23 01:10:24;;;;;;;1.63;1.30;;;;;;;3.91;100.00;100847.84;6345813;28;20040;-79
2023/01/23 01:13:25;;;;;;;4.72;2.42;;;;;;;3.94;100.00;100847.75;6345584;28;20040;-75
2023/01/23 01:16:26;;;;;;;3.97;2.53;;;;;;;3.90;100.00;100853.88;6346938;28;20069;-79
2023/01/23 01:19:28;;;;;;;2.33;1.42;;;;;;;3.93;100.00;100847.78;6345653;28;20047;-79
2023/01/23 01:22:29;;;;;;;3.80;2.10;;;;;;;3.95;100.00;100848.59;6345539;28;20487;-79
2023/01/23 01:25:32;;;;;;;2.03;1.70;;;;;;;3.97;100.00;100845.09;6345446;28;20042;-79
2023/01/23 01:28:38;;;;;;;3.92;2.03;;;;;;;3.99;100.00;100851.06;6346712;28;20498;-79
2023/01/23 01:31:38;;;;;;;2.45;1.48;;;;;;;3.98;100.00;100851.97;6345446;28;20040;-79
2023/01/23 01:34:39;;;;;;;4.53;2.55;;;;;;;4.02;100.00;100852.78;6346473;28;20089;-74
2023/01/23 01:37:43;;;;;;;5.65;3.33;;;;;;;3.89;100.00;100853.88;6346612;28;20043;-75
2023/01/23 01:40:44;;;;;;;3.33;2.50;;;;;;;3.90;100.00;100855.59;6346431;28;20126;-75
2023/01/23 01:43:44;;;;;;;7.03;2.53;;;;;;;3.82;100.00;100856.59;6346478;28;20084;-79
2023/01/23 01:46:46;;;;;;;3.65;2.40;;;;;;;3.80;100.00;100853.19;6362312;28;20040;-79
2023/01/23 01:49:48;;;;;;;5.13;2.75;;;;;;;3.90;100.00;100856.44;6346462;28;20112;-79
2023/01/23 01:52:54;;;;;;;4.05;2.35;;;;;;;3.95;100.00;100853.75;6346425;28;20396;-79
2023/01/23 01:55:56;;;;;;;3.45;1.60;;;;;;;3.84;100.00;100854.00;6345191;28;20044;-79
2023/01/23 01:58:59;;;;;;;;;;;;;;;3.86;100.00;100865.13;6346814;28;20040;-75
2023/01/23 02:02:10;;;;;;;1.92;1.73;;;;;;;3.87;100.00;100863.41;6345234;28;20383;-75
2023/01/23 02:05:36;;;;;;;6.50;3.30;;;;;;;3.88;100.00;100865.97;6345000;28;20098;-75
2023/01/23 02:08:57;;;;;;;2.35;1.88;;;;;;;3.86;100.00;100859.13;6356504;27;20063;-75
2023/01/23 02:12:01;;;;;;;3.30;1.65;;;;;;;3.85;100.00;100860.88;6362119;28;20047;-75
2023/01/23 02:15:04;;;;;;;4.95;2.67;;;;;;;3.87;100.00;100863.41;6346136;28;20040;-75
2023/01/23 02:18:05;;;;;;;3.13;1.83;;;;;;;3.84;100.00;100865.16;6346062;28;20039;-74
2023/01/23 02:21:07;;;;;;;3.25;2.05;;;;;;;3.86;100.00;100859.97;6346172;28;20560;-79
2023/01/23 02:24:30;;;;;;;3.65;2.22;;;;;;;3.96;100.00;100868.38;6361841;28;20507;-79
2023/01/23 02:27:33;;;;;;;4.00;1.95;;;;;;;3.87;100.00;100868.56;6346137;28;20491;-79
2023/01/23 02:30:42;;;;;;;3.72;1.58;;;;;;;3.84;100.00;100866.91;6344830;28;20053;-79
2023/01/23 02:33:46;;;;;;;4.65;2.08;;;;;;;3.86;100.00;100872.88;6344747;28;20039;-79
2023/01/23 02:36:48;;;;;;;3.67;1.42;;;;;;;3.79;100.00;100859.25;6346641;28;20501;-74
2023/01/23 02:39:48;;;;;;;2.17;1.97;;;;;;;3.79;100.00;100855.84;6366329;27;20490;-75
2023/01/23 02:42:50;;;;;;;6.57;2.35;;;;;;;3.79;100.00;100874.75;6350486;28;20039;-75
2023/01/23 02:45:53;;;;;;;4.90;1.63;;;;;;;3.67;100.00;100869.81;6350315;28;20555;-75
2023/01/23 02:48:54;;;;;;;3.10;2.15;;;;;;;3.61;100.00;100869.94;6349213;28;20112;-75
2023/01/23 02:51:56;;;;;;;4.47;2.85;;;;;;;3.52;100.00;100863.22;6350273;28;20046;-74
2023/01/23 02:54:56;;;;;;;2.03;1.77;;;;;;;3.59;100.00;100867.38;6350138;28;20040;-79
2023/01/23 03:01:19;;;;;;;4.97;2.35;;;;;;;3.40;100.00;100858.31;6350039;28;20526;-74
2023/01/23 03:04:20;;;;;;;3.28;2.25;;;;;;;3.40;100.00;100847.97;6349941;28;20040;-74
2023/01/23 03:07:21;;;;;;;1.42;1.33;;;;;;;3.37;100.00;100848.03;6348756;28;20476;-79
2023/01/23 03:10:23;;;;;;;3.88;2.15;;;;;;;3.51;100.00;100846.03;6348535;28;20093;-79
2023/01/23 03:13:24;;;;;;;3.17;2.20;;;;;;;3.59;100.00;100857.06;6348559;28;20036;-79
2023/01/23 03:16:25;;;;;;;3.13;1.70;;;;;;;3.59;100.00;100848.47;6348424;28;20047;-79
2023/01/23 03:19:37;;;;;;;2.65;1.65;;;;;;;3.47;100.00;100851.28;6348435;28;20043;-79
2023/01/23 03:22:39;;;;;;;4.68;2.50;;;;;;;3.48;100.00;100845.22;6349523;28;20043;-80
2023/01/23 03:25:43;;;;;;;4.20;2.25;;;;;;;3.35;100.00;100847.19;6349421;28;20090;-79
2023/01/23 03:32:09;;;;;;;2.58;1.83;;;;;;;3.43;100.00;100846.16;6349226;28;20331;-75
2023/01/23 03:35:13;;;;;;;6.03;2.90;;;;;;;3.38;100.00;100845.41;6364919;27;20039;-79
2023/01/23 03:38:16;;;;;;;3.30;2.13;;;;;;;3.49;100.00;100847.78;6347974;28;20615;-79
2023/01/23 03:41:26;;;;;;;2.97;1.85;;;;;;;3.56;100.00;100851.97;6348741;28;20517;-79
2023/01/23 03:44:27;;;;;;;3.10;1.63;;;;;;;3.54;100.00;100847.69;6349065;28;20056;-79
2023/01/23 03:47:27;;;;;;;6.63;2.88;;;;;;;3.51;100.00;100850.34;6348975;28;20059;-80
2023/01/23 03:50:30;;;;;;;4.72;2.20;;;;;;;3.51;100.00;100850.34;6347547;28;20092;-75
2023/01/23 03:53:31;;;;;;;8.07;1.95;;;;;;;3.52;100.00;100852.03;6348793;28;20044;-79
2023/01/23 03:56:32;;;;;;;1.90;1.70;;;;;;;3.55;100.00;100850.25;6347418;28;20126;-74
2023/01/23 03:59:33;;;;;;;2.15;1.60;;;;;;;3.43;100.00;100860.81;6348627;28;20483;-75
2023/01/23 04:02:34;;;;;;;2.08;1.70;;;;;;;3.51;100.00;100852.94;6347366;28;20039;-79
2023/01/23 04:05:35;;;;;;;6.55;2.05;;;;;;;3.33;100.00;100846.38;6348366;28;20051;-75
2023/01/23 04:08:36;;;;;;;4.03;2.25;;;;;;;3.35;100.00;100847.19;6348394;28;20035;-79
2023/01/23 04:11:39;;;;;;;2.88;1.65;;;;;;;3.38;100.00;100852.31;6347185;28;20118;-75
2023/01/23 04:14:40;;;;;;;3.03;2.72;;;;;;;3.38;100.00;100850.59;6348252;28;20036;-75
2023/01/23 04:17:41;;;;;;;7.93;3.10;;;;;;;3.34;100.00;100840.34;6347030;28;20043;-76
2023/01/23 04:20:44;;;;;;;5.38;1.90;;;;;;;3.39;100.00;100864.31;6348085;28;20040;-75
2023/01/23 04:23:44;;;;;;;3.20;2.30;;;;;;;3.35;100.00;100855.78;6347978;28;20042;-75
2023/01/23 04:26:45;;;;;;;10.75;3.08;;;;;;;3.28;100.00;100858.53;6346764;28;20043;-75
2023/01/23 04:29:49;;;;;;;2.63;1.70;;;;;;;3.32;100.00;100852.44;6347762;28;20479;-74
2023/01/23 04:32:50;;;;;;;3.72;1.98;;;;;;;3.27;100.00;100860.22;6346621;28;20043;-75
2023/01/23 04:35:59;;;;;;;5.43;2.58;;;;;;;3.28;100.00;100861.94;6347629;28;20035;-75
2023/01/23 04:39:01;;;;;;;5.60;2.42;;;;;;;3.28;100.00;100850.78;6371990;27;20466;-75
2023/01/23 04:42:05;;;;;;;5.23;2.17;;;;;;;3.36;100.00;100846.34;6371728;27;20047;-75
2023/01/23 04:45:08;;;;;;;10.95;4.40;;;;;;;3.27;100.00;100847.34;6373105;27;20063;-74
2023/01/23 04:48:10;;;;;;;8.82;4.63;;;;;;;3.33;100.00;100854.13;6372904;27;20039;-75
2023/01/23 04:51:11;;;;;;;3.17;2.17;;;;;;;3.24;100.00;100868.03;6372869;27;20050;-75
2023/01/23 04:54:12;;;;;;;8.15;2.88;;;;;;;3.07;100.00;100867.47;6371605;27;20066;-79
2023/01/23 04:57:12;;;;;;;2.38;1.55;;;;;;;3.20;100.00;100854.34;6372804;27;20043;-79
2023/01/23 05:00:14;;;;;;;4.63;1.65;;;;;;;3.11;100.00;100866.53;6372289;27;20039;-79
2023/01/23 05:03:16;;;;;;;3.95;2.45;;;;;;;3.14;100.00;100869.91;6371608;27;20042;-79
2023/01/23 05:06:16;;;;;;;2.90;2.13;;;;;;;3.13;100.00;100873.38;6372486;27;20035;-79
2023/01/23 05:09:17;;;;;;;3.95;2.55;;;;;;;3.08;100.00;100894.97;6372456;27;20096;-79
2023/01/23 05:12:18;;;;;;;1.67;1.25;;;;;;;3.14;100.00;100893.13;6371390;27;20039;-75
2023/01/23 05:15:20;;;;;;;5.20;2.75;;;;;;;3.21;100.00;100889.59;6371271;27;20542;-74
2023/01/23 05:18:23;;;;;;;6.55;2.58;;;;;;;3.11;100.00;100893.19;6372393;27;20043;-74
2023/01/23 05:21:24;;;;;;;8.20;2.25;;;;;;;3.14;100.00;100885.38;6371150;27;20047;-77
2023/01/23 05:24:25;;;;;;;3.95;2.97;;;;;;;3.08;100.00;100887.22;6372303;27;20547;-80
2023/01/23 05:27:25;;;;;;;9.70;4.70;;;;;;;3.06;100.00;100884.66;6372248;27;20039;-79
2023/01/23 05:30:27;;;;;;;7.82;5.75;;;;;;;3.03;100.00;100885.56;6370948;27;20398;-79
2023/01/23 05:33:28;;;;;;;10.10;5.55;;;;;;;2.92;100.00;100881.47;6371042;28;20043;-81
2023/01/23 05:36:28;;;;;;;7.30;4.80;;;;;;;2.96;100.00;100883.13;6370836;28;20039;-76
2023/01/23 05:39:32;;;;;;;5.65;4.10;;;;;;;2.93;100.00;100888.34;6371726;28;20440;-76
2023/01/23 05:42:34;;;;;;;6.53;4.28;;;;;;;2.95;100.00;100897.75;6370540;28;20118;-76
2023/01/23 05:45:37;;;;;;;4.93;2.83;;;;;;;3.06;100.00;100892.41;6370915;28;20043;-76
2023/01/23 05:48:38;;;;;;;2.15;1.83;;;;;;;2.95;100.00;100887.44;6370635;28;20532;-77
2023/01/23 05:51:38;;;;;;;2.55;2.03;;;;;;;2.88;100.00;100895.28;6371982;28;20118;-80
2023/01/23 05:54:42;;;;;;;3.95;2.20;;;;;;;3.02;100.00;100896.75;6371921;28;20039;-76
2023/01/23 05:57:42;;;;;;;2.65;2.05;;;;;;;3.14;100.00;100903.44;6370861;28;20047;-76
2023/01/23 06:00:46;;;;;;;4.13;2.40;;;;;;;2.95;100.00;100899.47;6372022;27;20043;-76
2023/01/23 06:03:46;;;;;;;8.07;2.63;;;;;;;2.98;100.00;100909.72;6370634;28;20046;-76
2023/01/23 06:06:47;;;;;;;3.38;2.05;;;;;;;2.99;100.00;100912.28;6370522;28;20124;-81
2023/01/23 06:09:48;;;;;;;15.63;2.05;;;;;;;2.89;100.00;100915.03;6370229;28;20035;-80
2023/01/23 06:12:49;;;;;;;8.48;2.50;;;;;;;2.94;100.00;100920.97;6373688;27;20475;-80
2023/01/23 06:15:54;;;;;;;1.65;1.40;;;;;;;2.96;100.00;100920.06;6376697;27;20047;-80
2023/01/23 06:18:55;;;;;;;5.97;2.53;;;;;;;2.90;100.00;100912.41;6375809;27;20547;-77
2023/01/23 06:21:57;;;;;;;4.13;2.22;;;;;;;3.00;100.00;100923.44;6375878;27;20047;-77
2023/01/23 06:24:57;;;;;;;6.72;2.17;;;;;;;3.00;100.00;100910.56;6376253;27;20502;-76
2023/01/23 06:28:01;;;;;;;6.35;3.20;;;;;;;3.11;100.00;100912.94;6376242;27;20039;-80
2023/01/23 06:31:02;;;;;;;1.58;1.23;;;;;;;3.25;100.00;100930.78;6374805;27;20039;-80
2023/01/23 06:34:03;;;;;;;2.63;1.95;;;;;;;3.13;100.00;100930.13;6374829;27;20043;-80
2023/01/23 06:37:04;;;;;;;2.67;2.22;;;;;;;3.25;100.00;100929.03;6374582;27;20535;-76
2023/01/23 06:40:11;;;;;;;5.68;2.53;;;;;;;3.23;100.00;100930.81;6375612;27;20116;-77
2023/01/23 06:43:14;;;;;;;3.03;1.52;;;;;;;3.23;100.00;100939.41;6375759;27;20039;-80
2023/01/23 06:46:15;;;;;;;3.28;2.35;;;;;;;3.27;100.00;100939.34;6374585;27;20099;-81
2023/01/23 06:49:18;;;;;;;5.18;2.30;;;;;;;3.24;100.00;100950.56;6374254;27;20043;-80
2023/01/23 06:52:19;;;;;;;1.92;1.77;;;;;;;3.31;100.00;100956.47;6375647;27;20118;-80
2023/01/23 06:55:20;;;;;;;4.07;2.08;;;;;;;3.28;100.00;100954.81;6374613;27;20039;-80
2023/01/23 06:58:21;;;;;;;2.80;1.80;;;;;;;3.35;100.00;100953.81;6374179;27;20046;-80
2023/01/23 07:01:22;;;;;;;3.35;2.13;;;;;;;3.48;100.00;100964.81;6374246;27;20546;-76
2023/01/23 07:04:23;;;;;;;3.05;1.73;;;;;;;3.47;100.00;100964.81;6374125;27;20035;-79
2023/01/23 07:07:24;;;;;;;3.58;2.20;;;;;;;3.58;100.00;100966.34;6373942;27;20106;-76
2023/01/23 07:10:27;;;;;;;5.90;2.33;;;;;;;3.55;100.00;100965.53;6374990;27;20042;-80
2023/01/23 07:13:28;;;;;;;3.17;1.90;;;;;;;3.72;100.00;100967.81;6373867;27;20367;-77
2023/01/23 07:16:29;;;;;;;4.85;2.83;;;;;;;3.71;100.00;100964.38;6373680;27;20035;-76
2023/01/23 07:19:30;;;;;;;3.63;2.10;;;;;;;3.78;100.00;100963.38;6373642;27;20490;-80
2023/01/23 07:22:31;;;;;;;2.72;2.20;;;;;;;3.86;100.00;100965.84;6374638;27;20436;-77
2023/01/23 07:25:32;;;;;;;2.50;1.80;;;;;;;3.74;100.00;100969.47;6374924;27;20066;-76
2023/01/23 07:28:33;;;;;;;4.05;2.40;;;;;;;3.99;100.00;100967.28;6373569;27;20043;-77
2023/01/23 07:31:34;;;;;;;1.88;1.35;;;;;;;3.93;100.00;100977.75;6373500;27;20114;-81
2023/01/23 07:34:35;;;;;;;4.05;1.45;;;;;;;4.03;100.00;100976.69;6373541;27;20043;-80
2023/01/23 07:37:36;;;;;;;7.32;3.03;;;;;;;4.00;100.00;100976.75;6374773;27;20120;-80
2023/01/23 07:40:41;;;;;;;6.80;2.60;;;;;;;4.29;100.00;100982.22;6374260;27;20051;-80
2023/01/23 07:43:42;;;;;;;4.35;2.97;;;;;;;4.42;100.00;100983.66;6373391;27;20112;-76
2023/01/23 07:46:44;;;;;;;4.47;1.92;;;;;;;4.75;100.00;101000.19;6373277;27;20090;-77
2023/01/23 07:49:45;;;;;;;2.95;2.20;;;;;;;4.83;100.00;100997.44;6372899;27;20126;-77
2023/01/23 07:52:46;;;;;;;2.17;1.73;;;;;;;4.80;100.00;101000.13;6374309;27;20035;-77
2023/01/23 07:55:49;;;;;;;4.85;2.80;;;;;;;4.90;100.00;100999.03;6374074;27;20035;-76
2023/01/23 07:58:50;;;;;;;2.63;1.80;;;;;;;4.98;100.00;100996.25;6372765;27;20035;-76
2023/01/23 08:01:51;;;;;;;3.22;2.03;;;;;;;5.03;100.00;100994.41;6372696;27;20047;-76
2023/01/23 08:04:52;;;;;;;4.20;2.28;;;;;;;5.15;100.00;100998.47;6372740;27;20482;-77
2023/01/23 08:07:53;;;;;;;4.95;2.70;;;;;;;5.30;100.00;100984.31;6372568;27;20487;-77
2023/01/23 08:10:53;;;;;;;6.65;2.97;;;;;;;5.61;100.00;101000.75;6372446;27;20039;-77
2023/01/23 08:13:54;;;;;;;5.00;3.08;;;;;;;5.74;100.00;100992.69;6373851;27;20039;-77
2023/01/23 08:16:56;;;;;;;2.85;2.53;;;;;;;5.92;100.00;100997.38;6373566;27;20506;-80
2023/01/23 08:19:56;;;;;;;10.73;2.70;;;;;;;6.12;99.37;101003.81;6372326;27;20115;-80
2023/01/23 08:22:59;;;;;;;3.90;3.28;;;;;;;6.25;98.49;101006.00;6372395;27;20062;-80
2023/01/23 08:26:03;;;;;;;6.72;3.38;;;;;;;6.30;96.62;101008.50;6373545;27;20505;-77
2023/01/23 08:29:04;;;;;;;7.30;2.97;;;;;;;6.43;95.72;101009.81;6372020;27;20035;-80
2023/01/23 08:32:05;;;;;;;6.85;2.78;;;;;;;6.75;95.14;101018.41;6371986;27;20043;-76
2023/01/23 08:35:06;;;;;;;2.08;1.83;;;;;;;6.67;94.46;101002.22;6372520;27;20046;-76
2023/01/23 08:38:09;;;;;;;4.05;2.33;;;;;;;6.54;94.44;100993.94;6373058;27;20185;-80
2023/01/23 08:41:10;;;;;;;;;;;;;;;6.73;93.51;101011.56;6373249;27;20107;-80
2023/01/23 08:44:12;;;;;;;3.25;2.25;;;;;;;6.84;92.77;101014.69;6371737;27;19941;-80
2023/01/23 08:47:12;;;;;;;3.65;2.45;;;;;;;6.94;91.73;101010.94;6372867;27;20052;-80
2023/01/23 08:50:13;;;;;;;4.05;2.15;;;;;;;7.04;90.61;101014.06;6371451;27;20035;-80
2023/01/23 08:53:14;;;;;;;7.43;3.47;;;;;;;6.99;90.24;101019.41;6372788;27;20190;-80
2023/01/23 08:56:20;;;;;;;3.30;2.35;;;;;;;7.13;91.50;101023.34;6371533;27;20057;-80
2023/01/23 08:59:20;;;;;;;4.75;2.40;;;;;;;7.50;89.41;101027.34;6372534;27;20042;-80
2023/01/23 09:02:21;;;;;;;6.50;2.72;;;;;;;7.39;88.72;101035.47;6372659;27;20036;-80
2023/01/23 09:05:22;;;;;;;3.47;2.67;;;;;;;7.40;88.96;101029.41;6371463;27;20039;-79
2023/01/23 09:08:23;;;;;;;3.67;2.10;;;;;;;7.36;88.37;101028.63;6372387;27;20209;-76
2023/01/23 09:11:24;;;;;;;3.00;2.22;;;;;;;7.59;89.03;101022.69;6371086;27;20035;-76
2023/01/23 09:14:25;;;;;;;5.40;2.80;;;;;;;7.65;88.71;101025.09;6372313;27;20398;-76
2023/01/23 09:17:26;;;;;;;3.08;1.92;;;;;;;7.38;89.41;101026.84;6372277;27;20047;-77
2023/01/23 09:20:27;;;;;;;4.72;3.15;;;;;;;7.08;92.81;101023.47;6371017;27;20505;-76
2023/01/23 09:23:28;;;;;;;5.90;2.97;;;;;;;7.05;91.32;101020.97;6372288;27;20141;-77
2023/01/23 09:26:29;;;;;;;3.63;2.90;;;;;;;7.02;92.43;101034.03;6370874;27;20039;-76
2023/01/23 09:29:30;;;;;;;5.13;2.92;;;;;;;7.28;92.64;101027.19;6371896;27;20478;-76
2023/01/23 09:32:31;;;;;;;5.05;2.42;;;;;;;7.51;89.22;101016.91;6370899;27;20070;-76
2023/01/23 09:35:32;;;;;;;5.68;3.20;;;;;;;7.55;89.90;101022.84;6370936;28;20487;-76
2023/01/23 09:38:33;;;;;;;3.03;1.85;;;;;;;7.45;89.59;101011.91;6370625;28;20035;-76
2023/01/23 09:41:34;;;;;;;4.93;3.03;;;;;;;7.50;90.73;101028.19;6370885;28;20078;-76
2023/01/23 09:44:47;;;;;;;7.50;2.90;;;;;;;7.63;89.64;101026.88;6371955;28;20122;-76
2023/01/23 09:48:19;;;;;;;3.40;2.30;;;;;;;7.40;88.81;101027.63;6375039;27;20383;-76
2023/01/23 09:51:26;;;;;;;2.85;2.22;;;;;;;7.62;89.89;101027.81;6377167;27;20043;-80
2023/01/23 09:54:59;;;;;;;6.32;2.47;;;;;;;7.55;90.50;101021.09;6375868;27;20039;-80
2023/01/23 09:58:02;;;;;;;3.65;2.45;;;;;;;8.01;88.91;101024.75;6376103;27;20072;-77
2023/01/23 10:01:12;;;;;;;6.05;3.08;;;;;;;8.22;87.25;101011.91;6375690;27;20050;-80
2023/01/23 10:04:17;;;;;;;6.57;2.70;;;;;;;8.49;85.83;101019.63;6375698;27;20054;-80
2023/01/23 10:07:44;;;;;;;10.25;3.20;;;;;;;8.17;86.15;101019.84;6375588;27;20039;-80
2023/01/23 10:10:55;;;;;;;3.70;2.65;;;;;;;8.35;85.95;101020.09;6376632;27;20038;-80
2023/01/23 10:14:30;;;;;;;6.72;2.95;;;;;;;8.26;88.93;101008.28;6375517;27;20073;-80
2023/01/23 10:18:12;;;;;;;4.72;2.85;;;;;;;8.08;89.99;101002.81;6375132;27;20039;-80
2023/01/23 10:21:42;;;;;;;4.00;2.53;;;;;;;8.05;88.61;101000.34;6341150;27;20053;-80
2023/01/23 10:24:53;;;;;;;3.63;2.60;;;;;;;8.02;88.53;101004.78;6375270;27;20125;-80
2023/01/23 10:27:59;;;;;;;3.38;2.42;;;;;;;8.10;89.96;101007.13;6375105;27;20051;-80
2023/01/23 10:31:07;;;;;;;9.43;2.50;;;;;;;8.11;88.91;100996.66;6373756;27;20043;-80
2023/01/23 10:34:08;;;;;;;3.15;2.28;;;;;;;8.19;88.44;100999.00;6350605;28;20039;-79
2023/01/23 10:37:29;;;;;;;5.30;3.13;;;;;;;8.56;87.16;100998.50;6352496;27;20050;-80
2023/01/23 10:43:56;;;;;;;3.50;3.07;;;;;;;8.96;85.38;101002.22;6354384;27;20088;-80
2023/01/23 10:47:00;;;;;;;7.30;3.80;;;;;;;9.13;84.87;100998.09;6375851;27;20039;-80
2023/01/23 10:50:05;;;;;;;6.63;3.38;;;;;;;8.89;86.12;100982.50;6375646;27;20039;-80
2023/01/23 10:53:17;;;;;;;4.85;3.08;;;;;;;8.73;87.41;100981.41;6375673;27;20039;-80
2023/01/23 10:56:19;;;;;;;7.00;3.33;;;;;;;8.81;88.15;100981.97;6374609;27;20039;-80
2023/01/23 10:59:37;;;;;;;6.85;3.30;;;;;;;8.80;88.20;100990.69;6369999;27;20058;-76
2023/01/23 11:02:39;;;;;;;5.50;2.95;;;;;;;8.78;87.95;100975.13;6372923;27;20054;-80
2023/01/23 11:05:42;;;;;;;6.35;3.97;;;;;;;8.93;89.43;100985.84;6374101;27;20054;-80
2023/01/23 11:08:54;;;;;;;7.57;3.83;;;;;;;8.93;88.26;100983.25;6375199;27;20043;-80
2023/01/23 11:12:05;;;;;;;4.43;3.40;;;;;;;9.01;89.45;100987.25;6375006;27;20071;-80
2023/01/23 11:15:22;;;;;;;5.47;3.15;;;;;;;9.13;88.02;100980.69;6373919;27;20043;-80
2023/01/23 11:18:34;;;;;;;5.35;2.30;;;;;;;9.17;88.57;100977.06;6361275;27;20068;-80
2023/01/23 11:21:55;;;;;;;6.28;3.58;;;;;;;9.24;89.30;100972.44;6348236;28;20052;-80
2023/01/23 11:24:57;;;;;;;3.55;2.30;;;;;;;9.36;86.29;100968.50;6348163;28;20040;-80
2023/01/23 11:28:00;;;;;;;9.38;3.88;;;;;;;9.32;88.07;100964.34;6348054;28;20535;-80
2023/01/23 11:31:08;;;;;;;4.93;3.25;;;;;;;9.44;88.14;100959.44;6347782;28;20062;-76
2023/01/23 11:34:12;;;;;;;4.30;2.88;;;;;;;9.57;87.25;100964.16;6347996;28;20050;-80
2023/01/23 11:48:48;;;;;;;10.27;4.22;;;;;;;10.15;83.89;100953.81;6334680;27;20877;-72
2023/01/23 11:52:09;;;;;;;6.43;3.80;;;;;;;10.08;84.17;100949.75;6317281;28;20044;-72
2023/01/23 11:55:33;;;;;;;10.15;4.30;;;;;;;10.01;85.08;100953.56;6318410;28;20036;-72
2023/01/23 11:58:45;;;;;;;11.43;4.18;;;;;;;10.00;84.22;100955.31;6317391;28;20032;-72
2023/01/23 12:02:16;;;;;;;5.32;3.17;;;;;;;9.65;84.67;100956.84;6318331;28;20041;-72
2023/01/23 12:05:30;;;;;;;5.13;3.33;;;;;;;9.72;85.50;100950.47;6316941;28;20040;-72
2023/01/23 12:08:41;;;;;;;7.93;4.05;;;;;;;9.73;86.32;100954.75;6318303;28;20036;-71
2023/01/23 12:11:47;;;;;;;5.55;3.45;;;;;;;9.69;86.60;100948.81;6318157;28;20400;-77
2023/01/23 12:15:02;;;;;;;7.30;3.63;;;;;;;9.80;85.58;100953.59;6318100;28;20051;-77
2023/01/23 12:18:42;;;;;;;5.20;3.40;;;;;;;9.64;85.92;100942.16;6322409;28;20551;-77
2023/01/23 12:22:04;;;;;;;7.78;3.22;;;;;;;9.69;86.43;100950.59;6318571;28;20071;-72
2023/01/23 12:25:28;;;;;;;4.40;3.17;;;;;;;9.74;86.72;100943.44;6341816;28;20047;-72
2023/01/23 12:28:47;;;;;;;5.18;3.17;;;;;;;9.91;85.87;100954.91;6336394;28;20580;-77
2023/01/23 12:32:26;;;;;;;7.10;3.60;;;;;;;9.64;85.48;100942.97;6342517;28;20047;-77
2023/01/23 12:35:45;;;;;;;5.75;3.42;;;;;;;9.84;84.31;100949.94;6341402;28;20133;-77
2023/01/23 12:39:00;;;;;;;5.18;3.13;;;;;;;9.68;86.05;100949.75;6342742;28;20119;-72
2023/01/23 12:42:07;;;;;;;5.68;3.47;;;;;;;9.91;85.40;100950.53;6342300;28;20536;-77
2023/01/23 12:45:22;;;;;;;4.97;3.08;;;;;;;10.06;85.17;100955.03;6341123;28;20193;-72
2023/01/23 12:48:29;;;;;;;6.50;3.88;;;;;;;10.06;84.00;100959.41;6329641;28;20175;-71
2023/01/23 12:51:37;;;;;;;5.60;3.58;;;;;;;10.12;83.91;100956.53;6324040;28;20403;-72
2023/01/23 12:54:45;;;;;;;5.03;2.83;;;;;;;10.14;84.95;100953.88;6323838;28;20469;-72
2023/01/23 12:57:50;;;;;;;6.18;2.92;;;;;;;10.07;84.36;100940.25;6323814;28;20039;-72
2023/01/23 13:01:29;;;;;;;4.85;2.78;;;;;;;9.97;84.44;100946.81;6318813;28;20044;-72
2023/01/23 13:04:49;;;;;;;4.43;2.72;;;;;;;10.21;84.53;100942.22;6299752;28;20491;-77
2023/01/23 13:08:23;;;;;;;4.70;2.85;;;;;;;10.14;84.05;100944.28;6299649;28;20063;-71
2023/01/23 13:11:59;;;;;;;5.90;3.22;;;;;;;10.06;84.95;100949.00;6298349;28;20114;-77
2023/01/23 13:15:15;;;;;;;6.45;3.15;;;;;;;10.09;84.30;100949.72;6298315;28;20048;-77
2023/01/23 13:18:21;;;;;;;4.32;2.72;;;;;;;10.02;84.69;100955.25;6299399;28;20044;-72
2023/01/23 13:28:27;;;;;;;7.97;2.97;;;;;;;9.84;85.43;100949.94;6299156;28;20568;-77
2023/01/23 13:31:35;;;;;;;5.10;3.33;;;;;;;9.84;86.71;100943.88;6299322;28;20048;-77
2023/01/23 13:34:36;;;;;;;4.88;2.95;;;;;;;9.77;86.51;100943.28;6297755;28;20048;-77
2023/01/23 13:37:37;;;;;;;4.43;3.05;;;;;;;10.04;86.31;100946.44;6297726;28;20072;-77
2023/01/23 13:41:03;;;;;;;4.95;2.85;;;;;;;9.92;87.10;100949.59;6298843;28;20045;-77
2023/01/23 13:44:25;;;;;;;4.88;2.35;;;;;;;9.82;87.39;100946.56;6298682;28;20045;-72
2023/01/23 13:51:20;;;;;;;3.67;2.00;;;;;;;9.83;88.20;100947.41;6298580;28;20444;-77
2023/01/23 13:57:47;;;;;;;11.05;3.38;;;;;;;9.96;87.52;100950.31;6323478;28;20101;-71
2023/01/23 14:07:45;;;;;;;5.90;2.97;;;;;;;9.89;88.09;100952.34;6323394;28;20640;-72
2023/01/23 14:10:48;;;;;;;4.53;2.47;;;;;;;9.77;87.32;100950.28;6323333;28;20073;-72
2023/01/23 14:17:22;;;;;;;6.78;3.47;;;;;;;9.67;88.93;100958.47;6323060;28;20040;-77
2023/01/23 14:20:25;;;;;;;5.90;2.90;;;;;;;9.57;89.29;100957.16;6321968;28;20044;-77
2023/01/23 14:23:40;;;;;;;10.80;5.75;;;;;;;9.47;89.52;100946.31;6323027;28;20403;-77
2023/01/23 14:26:48;;;;;;;7.97;4.50;;;;;;;9.44;90.53;100956.84;6322771;28;20040;-77
2023/01/23 14:30:01;;;;;;;7.90;4.22;;;;;;;9.31;90.24;100954.81;6321708;28;20058;-77
2023/01/23 14:33:10;;;;;;;5.60;2.88;;;;;;;9.22;90.11;100956.88;6321539;28;20044;-72
2023/01/23 14:36:16;;;;;;;6.15;2.65;;;;;;;9.17;90.19;100958.00;6322689;28;20071;-77
2023/01/23 14:39:25;;;;;;;4.85;3.03;;;;;;;9.07;90.31;100965.31;6321469;28;20044;-72
2023/01/23 14:42:29;;;;;;;5.53;3.60;;;;;;;9.07;90.28;100965.31;6322566;28;20044;-77
2023/01/23 14:45:31;;;;;;;4.47;2.65;;;;;;;8.87;90.79;100966.13;6321062;28;20043;-72
2023/01/23 14:48:37;;;;;;;5.95;3.50;;;;;;;8.87;91.29;100966.13;6321154;28;20052;-77
2023/01/23 14:51:57;;;;;;;9.48;3.05;;;;;;;8.77;91.60;100967.38;6321289;28;20043;-77
2023/01/23 14:54:59;;;;;;;6.90;2.15;;;;;;;8.51;92.55;100968.41;6321084;28;20047;-77
2023/01/23 14:58:06;;;;;;;3.60;2.33;;;;;;;8.56;92.93;100966.47;6320864;28;20055;-72
2023/01/23 15:01:09;;;;;;;7.40;2.85;;;;;;;8.37;93.73;100974.06;6320972;28;20399;-78
2023/01/23 15:04:22;;;;;;;3.53;2.30;;;;;;;8.28;95.13;100976.13;6320969;28;20044;-77
2023/01/23 15:07:23;;;;;;;3.90;2.28;;;;;;;8.24;96.14;100982.31;6322134;28;20407;-77
2023/01/23 15:10:28;;;;;;;7.07;2.90;;;;;;;8.28;95.40;100991.72;6320566;28;20050;-71
2023/01/23 15:13:39;;;;;;;5.13;2.80;;;;;;;8.18;95.62;100986.91;6322057;28;20044;-72